Time;durP1;ratioP1;P1;durP2;ratioP2;P2;SDS_P1;SDS_P2;PMS_P1;PMS_P2;Temp;Humidity;BMP_temperature;BMP_pressure;BME280_temperature;BME280_humidity;BME280_pressure;Samples;Min_cycle;Max_cycle;Signal;HPM_P1;HPM_P2
2022/04/02 00:00:26;;;;;;;2.53;2.43;;;2.60;99.90;;;;;;5026962;28;20292;-69
2022/04/02 00:02:53;;;;;;;2.70;2.60;;;2.60;99.90;;;;;;5016345;28;20208;-71
2022/04/02 00:05:19;;;;;;;2.60;2.50;;;2.60;99.90;;;;;;5018070;28;20201;-69
2022/04/02 00:07:46;;;;;;;2.70;2.60;;;2.60;99.90;;;;;;5021359;28;20272;-70
2022/04/02 00:10:13;;;;;;;2.70;2.60;;;2.50;99.90;;;;;;5021329;28;20209;-69
2022/04/02 00:12:40;;;;;;;2.60;2.50;;;2.50;99.90;;;;;;5019906;28;20240;-73
2022/04/02 00:15:09;;;;;;;2.60;2.50;;;2.50;99.90;;;;;;5019861;28;20329;-72
2022/04/02 00:17:36;;;;;;;2.83;2.73;;;2.40;99.90;;;;;;5016653;28;20224;-68
2022/04/02 00:20:05;;;;;;;2.70;2.60;;;2.50;99.90;;;;;;5025581;28;20309;-68
2022/04/02 00:22:32;;;;;;;2.80;2.70;;;2.50;99.90;;;;;;5025890;28;20980;-71
2022/04/02 00:24:59;;;;;;;2.57;2.47;;;2.50;99.90;;;;;;5020514;28;20291;-72
2022/04/02 00:27:26;;;;;;;2.50;2.40;;;2.50;99.90;;;;;;5020646;28;20197;-68
2022/04/02 00:29:53;;;;;;;2.53;2.43;;;2.50;99.90;;;;;;5021498;28;20215;-72
2022/04/02 00:32:21;;;;;;;2.60;2.50;;;2.50;99.90;;;;;;5023141;28;20676;-68
2022/04/02 00:34:50;;;;;;;2.70;2.60;;;2.50;99.90;;;;;;5018521;28;20209;-69
2022/04/02 00:37:16;;;;;;;2.27;2.17;;;2.50;99.90;;;;;;5017190;28;20218;-69
2022/04/02 00:39:43;;;;;;;2.50;2.40;;;2.50;99.90;;;;;;5015808;28;20239;-71
2022/04/02 00:42:10;;;;;;;2.80;2.60;;;2.50;99.90;;;;;;5012956;28;20570;-70
2022/04/02 00:44:37;;;;;;;2.30;2.20;;;2.50;99.90;;;;;;5014683;28;20237;-70
2022/04/02 00:47:04;;;;;;;2.53;2.43;;;2.50;99.90;;;;;;5014281;28;20201;-70
2022/04/02 00:49:33;;;;;;;2.40;2.30;;;2.50;99.90;;;;;;5033358;23;20309;-63
2022/04/02 00:52:00;;;;;;;2.50;2.40;;;2.50;99.90;;;;;;5017986;28;20233;-64
2022/04/02 00:54:27;;;;;;;2.40;2.30;;;2.50;99.90;;;;;;5015708;28;20232;-64
2022/04/02 00:56:54;;;;;;;2.40;2.30;;;2.50;99.90;;;;;;5015054;28;20263;-63
2022/04/02 00:59:21;;;;;;;2.50;2.40;;;2.50;99.90;;;;;;5013775;28;20309;-64
2022/04/02 01:01:48;;;;;;;2.10;2.00;;;2.60;99.90;;;;;;5015874;28;20299;-64
2022/04/02 01:04:15;;;;;;;2.40;2.30;;;2.60;99.90;;;;;;5015341;28;20255;-64
2022/04/02 01:06:44;;;;;;;2.50;2.40;;;2.60;99.90;;;;;;5015681;28;20221;-64
2022/04/02 01:09:11;;;;;;;2.30;2.20;;;2.70;99.90;;;;;;5014161;28;20308;-64
2022/04/02 01:11:39;;;;;;;2.30;2.20;;;2.60;99.90;;;;;;5015738;28;20208;-64
2022/04/02 01:14:07;;;;;;;2.57;2.47;;;2.60;99.90;;;;;;5019110;28;20201;-64
2022/04/02 01:16:34;;;;;;;2.47;2.37;;;2.60;99.90;;;;;;5015353;28;20228;-65
2022/04/02 01:19:03;;;;;;;2.50;2.40;;;2.50;99.90;;;;;;5015171;28;20637;-65
2022/04/02 01:21:30;;;;;;;2.67;2.57;;;2.50;99.90;;;;;;5015102;28;20256;-63
2022/04/02 01:24:00;;;;;;;2.77;2.67;;;2.40;99.90;;;;;;5017515;28;20635;-63
2022/04/02 01:26:27;;;;;;;2.57;2.47;;;2.40;99.90;;;;;;5013870;28;20236;-64
2022/04/02 01:28:56;;;;;;;2.80;2.70;;;2.50;99.90;;;;;;5016641;28;20208;-63
2022/04/02 01:31:24;;;;;;;2.87;2.77;;;2.50;99.90;;;;;;5014250;28;20284;-64
2022/04/02 01:33:52;;;;;;;2.70;2.60;;;2.50;99.90;;;;;;5015592;28;20287;-64
2022/04/02 01:36:20;;;;;;;3.20;3.10;;;2.40;99.90;;;;;;5016165;28;20311;-64
2022/04/02 01:38:48;;;;;;;2.90;2.80;;;2.40;99.90;;;;;;5018870;28;20205;-64
2022/04/02 01:41:16;;;;;;;3.07;2.97;;;2.30;99.90;;;;;;5014461;28;20813;-64
2022/04/02 01:43:43;;;;;;;3.23;3.13;;;2.30;99.90;;;;;;5017920;28;20225;-64
2022/04/02 01:46:12;;;;;;;3.25;3.15;;;2.20;99.90;;;;;;5020479;28;20209;-65
2022/04/02 01:48:39;;;;;;;2.90;2.80;;;2.20;99.90;;;;;;5020894;28;20292;-64
2022/04/02 01:51:06;;;;;;;3.30;3.10;;;2.20;99.90;;;;;;5019061;28;20316;-64
2022/04/02 01:53:33;;;;;;;3.15;2.95;;;2.20;99.90;;;;;;5012901;28;20296;-64
2022/04/02 01:56:01;;;;;;;3.13;3.03;;;2.30;99.90;;;;;;5017068;28;20259;-64
2022/04/02 01:58:29;;;;;;;2.90;2.80;;;2.30;99.90;;;;;;5014301;28;20229;-64
2022/04/02 02:00:57;;;;;;;3.20;3.00;;;2.20;99.90;;;;;;5018806;28;20255;-65
2022/04/02 02:03:24;;;;;;;3.10;3.00;;;2.20;99.90;;;;;;5016505;28;20529;-65
2022/04/02 02:05:51;;;;;;;3.20;3.00;;;2.10;99.90;;;;;;5015253;28;20205;-64
2022/04/02 02:08:18;;;;;;;2.97;2.87;;;2.10;99.90;;;;;;5018050;28;20292;-65
2022/04/02 02:10:47;;;;;;;3.05;2.95;;;2.10;99.90;;;;;;5024359;28;20307;-65
2022/04/02 02:13:14;;;;;;;2.93;2.83;;;2.10;99.90;;;;;;5022222;28;20201;-66
2022/04/02 02:15:43;;;;;;;2.90;2.80;;;2.10;99.90;;;;;;5030492;28;20193;-64
2022/04/02 02:18:10;;;;;;;3.03;2.93;;;2.10;99.90;;;;;;5031786;28;20319;-63
2022/04/02 02:20:37;;;;;;;3.10;3.00;;;2.10;99.90;;;;;;5031593;28;20320;-66
2022/04/02 02:23:04;;;;;;;3.40;3.20;;;2.10;99.90;;;;;;5034202;28;20208;-64
2022/04/02 02:25:30;;;;;;;2.80;2.70;;;2.00;99.90;;;;;;5042916;28;20232;-64
2022/04/02 02:27:57;;;;;;;2.83;2.73;;;2.10;99.90;;;;;;5042503;28;20235;-66
2022/04/02 02:30:24;;;;;;;2.90;2.80;;;2.10;99.90;;;;;;5041218;28;20224;-63
2022/04/02 02:35:49;;;;;;;3.00;2.90;;;2.10;99.90;;;;;;5042012;28;20228;-64
2022/04/02 02:35:50;;;;;;;3.17;2.97;;;2.10;99.90;;;;;;5035996;28;20189;-65
2022/04/02 02:38:20;;;;;;;3.20;3.00;;;2.10;99.90;;;;;;5030271;28;20224;-64
2022/04/02 02:40:48;;;;;;;2.85;2.75;;;2.00;99.90;;;;;;5032180;28;20231;-64
2022/04/02 02:43:15;;;;;;;2.95;2.80;;;2.00;99.90;;;;;;5033675;28;20200;-65
2022/04/02 02:45:42;;;;;;;2.83;2.73;;;2.00;99.90;;;;;;5033831;28;20247;-64
2022/04/02 02:48:11;;;;;;;2.90;2.75;;;2.00;99.90;;;;;;5034262;28;20288;-64
2022/04/02 02:50:39;;;;;;;3.20;3.00;;;2.00;99.90;;;;;;5032020;28;20306;-64
2022/04/02 02:53:06;;;;;;;3.00;2.90;;;2.10;99.90;;;;;;5033716;28;20246;-63
2022/04/02 02:55:33;;;;;;;3.10;2.97;;;2.10;99.90;;;;;;5033360;28;20259;-63
2022/04/02 02:57:59;;;;;;;2.63;2.53;;;2.10;99.90;;;;;;5033413;28;20311;-63
2022/04/02 03:00:26;;;;;;;2.80;2.70;;;2.10;99.90;;;;;;5033776;28;20788;-65
2022/04/02 03:02:53;;;;;;;2.90;2.80;;;2.10;99.90;;;;;;5033484;28;20622;-65
2022/04/02 03:05:22;;;;;;;2.90;2.80;;;2.10;99.90;;;;;;5033570;28;20217;-66
2022/04/02 03:07:50;;;;;;;2.60;2.50;;;2.00;99.90;;;;;;5033997;28;20236;-64
2022/04/02 03:10:19;;;;;;;2.60;2.50;;;2.10;99.90;;;;;;5034957;28;20278;-64
2022/04/02 03:12:46;;;;;;;2.90;2.70;;;2.10;99.90;;;;;;5033434;28;20240;-64
2022/04/02 03:15:15;;;;;;;3.10;2.90;;;2.10;99.90;;;;;;5033645;28;20589;-64
2022/04/02 03:17:43;;;;;;;2.90;2.70;;;2.10;99.90;;;;;;5034121;28;20220;-65
2022/04/02 03:20:11;;;;;;;2.43;2.33;;;2.10;99.90;;;;;;5033642;28;20225;-64
2022/04/02 03:22:40;;;;;;;2.85;2.75;;;2.20;99.90;;;;;;5033566;28;20208;-64
2022/04/02 03:25:09;;;;;;;2.60;2.50;;;2.20;99.90;;;;;;5039406;28;20275;-64
2022/04/02 03:27:36;;;;;;;2.43;2.33;;;2.20;99.90;;;;;;5040847;28;20219;-64
2022/04/02 03:30:05;;;;;;;2.88;2.78;;;2.20;99.90;;;;;;5034226;28;20295;-63
2022/04/02 03:32:32;;;;;;;2.60;2.50;;;2.20;99.90;;;;;;5033387;28;20872;-64
2022/04/02 03:34:59;;;;;;;2.47;2.35;;;2.20;99.90;;;;;;5033145;28;20291;-66
2022/04/02 03:37:26;;;;;;;2.40;2.30;;;2.20;99.90;;;;;;5034638;28;20255;-64
2022/04/02 03:39:54;;;;;;;2.30;2.20;;;2.20;99.90;;;;;;5035060;28;20225;-63
2022/04/02 03:42:21;;;;;;;2.77;2.57;;;2.20;99.90;;;;;;5038186;28;20212;-63
2022/04/02 03:44:48;;;;;;;2.73;2.63;;;2.20;99.90;;;;;;5039420;28;20212;-63
2022/04/02 03:47:16;;;;;;;2.60;2.50;;;2.20;99.90;;;;;;5034529;28;20236;-64
2022/04/02 03:49:45;;;;;;;2.60;2.50;;;2.20;99.90;;;;;;5035085;28;20267;-64
2022/04/02 03:52:13;;;;;;;2.10;2.00;;;2.30;99.90;;;;;;5033890;28;20204;-64
2022/04/02 03:54:40;;;;;;;2.40;2.30;;;2.20;99.90;;;;;;5041129;28;20272;-63
2022/04/02 03:57:10;;;;;;;2.27;2.17;;;2.20;99.90;;;;;;5047117;28;20282;-64
2022/04/02 03:59:38;;;;;;;2.17;2.07;;;2.20;99.90;;;;;;5044864;28;20220;-63
2022/04/02 04:02:05;;;;;;;2.00;1.90;;;2.30;99.90;;;;;;5046357;28;20212;-63
2022/04/02 04:04:32;;;;;;;2.20;2.10;;;2.40;99.90;;;;;;5029903;28;20240;-63
2022/04/02 04:07:00;;;;;;;2.00;1.90;;;2.50;99.90;;;;;;5035059;28;20204;-63
2022/04/02 04:09:27;;;;;;;2.33;2.23;;;2.40;99.90;;;;;;5041729;28;20677;-62
2022/04/02 04:11:55;;;;;;;2.17;2.07;;;2.40;99.90;;;;;;5035475;28;20244;-65
2022/04/02 04:14:24;;;;;;;2.07;1.97;;;2.40;99.90;;;;;;5033666;28;20213;-64
2022/04/02 04:16:51;;;;;;;1.97;1.87;;;2.40;99.90;;;;;;5033017;28;20347;-64
2022/04/02 04:19:18;;;;;;;2.10;2.00;;;2.40;99.90;;;;;;5033334;28;20224;-64
2022/04/02 04:21:46;;;;;;;2.20;2.10;;;2.40;99.90;;;;;;5033092;28;20211;-65
2022/04/02 04:24:14;;;;;;;2.20;2.10;;;2.30;99.90;;;;;;5031270;28;20776;-65
2022/04/02 04:26:42;;;;;;;2.20;2.10;;;2.30;99.90;;;;;;5032457;28;20262;-65
2022/04/02 04:29:09;;;;;;;2.23;2.13;;;2.30;99.90;;;;;;5032838;28;20625;-65
2022/04/02 04:31:37;;;;;;;2.00;1.90;;;2.30;99.90;;;;;;5033033;28;20209;-64
2022/04/02 04:34:04;;;;;;;2.20;2.10;;;2.30;99.90;;;;;;5031786;28;20584;-64
2022/04/02 04:36:31;;;;;;;2.20;2.10;;;2.30;99.90;;;;;;5031701;28;20598;-65
2022/04/02 04:38:58;;;;;;;2.10;2.00;;;2.30;99.90;;;;;;5032237;28;20221;-65
2022/04/02 04:41:25;;;;;;;2.03;1.93;;;2.30;99.90;;;;;;5032267;28;20247;-65
2022/04/02 04:43:53;;;;;;;2.10;2.00;;;2.30;99.90;;;;;;5031323;28;20208;-65
2022/04/02 04:46:21;;;;;;;2.30;2.20;;;2.30;99.90;;;;;;5032032;28;20291;-65
2022/04/02 04:48:49;;;;;;;2.27;2.17;;;2.40;99.90;;;;;;5032779;28;20236;-63
2022/04/02 04:51:18;;;;;;;2.30;2.20;;;2.40;99.90;;;;;;5032533;28;20243;-64
2022/04/02 04:53:46;;;;;;;2.10;2.00;;;2.40;99.90;;;;;;5031505;28;20294;-63
2022/04/02 04:56:13;;;;;;;2.10;2.00;;;2.40;99.90;;;;;;5031039;28;20212;-64
2022/04/02 04:58:40;;;;;;;2.20;2.10;;;2.30;99.90;;;;;;5031607;28;20271;-64
2022/04/02 05:01:08;;;;;;;2.00;1.90;;;2.40;99.90;;;;;;5031489;28;20319;-65
2022/04/02 05:03:36;;;;;;;2.20;2.10;;;2.40;99.90;;;;;;5029575;28;20205;-63
2022/04/02 05:06:06;;;;;;;2.13;2.03;;;2.50;99.90;;;;;;5030999;28;20267;-64
2022/04/02 05:08:34;;;;;;;2.17;2.07;;;2.50;99.90;;;;;;5031758;28;20208;-65
2022/04/02 05:11:01;;;;;;;2.40;2.30;;;2.40;99.90;;;;;;5031602;28;20256;-65
2022/04/02 05:13:29;;;;;;;2.20;2.10;;;2.40;99.90;;;;;;5031380;28;20639;-66
2022/04/02 05:15:56;;;;;;;2.20;2.10;;;2.30;99.90;;;;;;5030886;28;20200;-65
2022/04/02 05:18:23;;;;;;;2.30;2.20;;;2.40;99.90;;;;;;5030618;28;20224;-64
2022/04/02 05:20:50;;;;;;;2.37;2.27;;;2.40;99.90;;;;;;5031038;28;20228;-64
2022/04/02 05:23:19;;;;;;;2.27;2.17;;;2.40;99.90;;;;;;5030209;28;20296;-64
2022/04/02 05:25:45;;;;;;;2.20;2.10;;;2.40;99.90;;;;;;5030624;28;20212;-65
2022/04/02 05:28:12;;;;;;;2.37;2.27;;;2.40;99.90;;;;;;5030930;28;20291;-65
2022/04/02 05:30:39;;;;;;;2.43;2.33;;;2.30;99.90;;;;;;5030748;28;20235;-64
2022/04/02 05:33:07;;;;;;;2.27;2.17;;;2.30;99.90;;;;;;5030063;28;20232;-65
2022/04/02 05:35:34;;;;;;;2.50;2.40;;;2.30;99.90;;;;;;5030180;28;20582;-64
2022/04/02 05:38:01;;;;;;;2.60;2.50;;;2.30;99.90;;;;;;5030665;28;20332;-63
2022/04/02 05:40:29;;;;;;;2.20;2.10;;;2.20;99.90;;;;;;5030801;28;20307;-63
2022/04/02 05:42:57;;;;;;;2.17;2.07;;;2.20;99.90;;;;;;5030509;28;20274;-64
2022/04/02 05:45:24;;;;;;;2.63;2.53;;;2.20;99.90;;;;;;5029736;28;20208;-63
2022/04/02 05:47:53;;;;;;;2.70;2.60;;;2.30;99.90;;;;;;5022187;28;20195;-65
2022/04/02 05:50:23;;;;;;;2.42;2.33;;;2.30;99.90;;;;;;5030601;28;20251;-64
2022/04/02 05:52:51;;;;;;;2.10;2.00;;;2.20;99.90;;;;;;5030560;28;20227;-62
2022/04/02 05:55:18;;;;;;;2.30;2.20;;;2.10;99.90;;;;;;5030933;28;20228;-63
2022/04/02 05:57:47;;;;;;;2.30;2.20;;;2.10;99.90;;;;;;5030427;28;20225;-66
2022/04/02 06:00:16;;;;;;;2.30;2.20;;;2.20;99.90;;;;;;5031237;28;20229;-64
2022/04/02 06:02:44;;;;;;;2.10;2.00;;;2.30;99.90;;;;;;5030019;28;20671;-65
2022/04/02 06:05:13;;;;;;;2.30;2.20;;;2.30;99.90;;;;;;5030534;28;20671;-62
2022/04/02 06:07:41;;;;;;;2.97;2.22;;;2.50;99.90;;;;;;5013179;28;20229;-61
2022/04/02 06:10:10;;;;;;;2.53;2.43;;;2.40;99.90;;;;;;5012776;28;20262;-62
2022/04/02 06:12:38;;;;;;;2.20;2.10;;;2.30;99.90;;;;;;5011202;28;20202;-63
2022/04/02 06:15:09;;;;;;;2.10;2.00;;;2.30;99.90;;;;;;5011992;28;20201;-62
2022/04/02 06:17:36;;;;;;;2.57;2.47;;;2.30;99.90;;;;;;5021367;28;20295;-63
2022/04/02 06:20:05;;;;;;;2.03;1.92;;;2.30;99.90;;;;;;5035006;28;20660;-64
2022/04/02 06:22:32;;;;;;;2.20;2.10;;;2.30;99.90;;;;;;5034335;28;20660;-64
2022/04/02 06:24:58;;;;;;;2.10;2.00;;;2.20;99.90;;;;;;5047261;28;20704;-62
2022/04/02 06:27:25;;;;;;;2.00;1.90;;;2.20;99.90;;;;;;5037625;28;20725;-62
2022/04/02 06:29:52;;;;;;;2.00;1.90;;;2.20;99.90;;;;;;5034506;28;20254;-62
2022/04/02 06:32:22;;;;;;;2.10;2.00;;;2.30;99.90;;;;;;5034706;28;20291;-63
2022/04/02 06:34:49;;;;;;;2.40;2.30;;;2.30;99.90;;;;;;5034672;28;20192;-62
2022/04/02 06:37:16;;;;;;;2.10;2.00;;;2.30;99.90;;;;;;5034670;28;20236;-61
2022/04/02 06:39:43;;;;;;;1.90;1.80;;;2.30;99.90;;;;;;5034564;28;20315;-61
2022/04/02 06:42:10;;;;;;;2.03;1.93;;;2.20;99.90;;;;;;5034892;28;20201;-63
2022/04/02 06:44:37;;;;;;;2.10;2.00;;;2.30;99.90;;;;;;5030616;28;20208;-63
2022/04/02 06:47:05;;;;;;;1.90;1.80;;;2.20;99.90;;;;;;5014974;28;20316;-62
2022/04/02 06:49:33;;;;;;;2.10;2.00;;;2.20;99.90;;;;;;5014811;28;20313;-63
2022/04/02 06:52:00;;;;;;;2.00;1.90;;;2.10;99.90;;;;;;5033465;22;20752;-63
2022/04/02 06:54:27;;;;;;;1.90;1.80;;;2.10;99.90;;;;;;5013243;28;20709;-62
2022/04/02 06:56:55;;;;;;;1.63;1.60;;;2.00;99.90;;;;;;5014115;28;20209;-64
2022/04/02 06:59:22;;;;;;;1.90;1.80;;;2.00;99.90;;;;;;5015498;28;20221;-63
2022/04/02 07:01:49;;;;;;;1.90;1.80;;;2.00;99.90;;;;;;5015439;28;20272;-63
2022/04/02 07:04:16;;;;;;;1.90;1.80;;;2.10;99.90;;;;;;5014739;28;20585;-63
2022/04/02 07:06:45;;;;;;;1.90;1.80;;;2.10;99.90;;;;;;5014611;28;20296;-63
2022/04/02 07:09:14;;;;;;;1.90;1.80;;;2.10;99.90;;;;;;5015468;28;20209;-63
2022/04/02 07:11:41;;;;;;;1.80;1.70;;;2.10;99.90;;;;;;5014661;28;20221;-62
2022/04/02 07:14:09;;;;;;;1.60;1.60;;;2.20;99.90;;;;;;5014264;28;20735;-63
2022/04/02 07:16:36;;;;;;;1.90;1.80;;;2.20;99.90;;;;;;5014274;28;20198;-64
2022/04/02 07:19:04;;;;;;;2.20;2.00;;;2.30;99.90;;;;;;5014077;28;20225;-61
2022/04/02 07:21:32;;;;;;;1.90;1.80;;;2.40;99.90;;;;;;5014033;28;20293;-63
2022/04/02 07:24:02;;;;;;;2.00;1.90;;;2.50;99.90;;;;;;5013695;28;20307;-62
2022/04/02 07:26:31;;;;;;;2.20;2.10;;;2.40;99.90;;;;;;5012948;28;20221;-64
2022/04/02 07:29:00;;;;;;;1.87;1.77;;;2.40;99.90;;;;;;5012253;28;20220;-63
2022/04/02 07:31:27;;;;;;;2.23;2.13;;;2.40;99.90;;;;;;5014484;28;20227;-64
2022/04/02 07:33:54;;;;;;;1.80;1.80;;;2.30;99.90;;;;;;5013337;28;20202;-63
2022/04/02 07:36:30;;;;;;;2.23;2.13;;;2.30;99.90;;;;;;5013142;28;20240;-62
2022/04/02 07:39:03;;;;;;;1.77;1.73;;;2.50;99.90;;;;;;5013544;28;20300;-64
2022/04/02 07:41:38;;;;;;;1.83;1.75;;;2.50;99.90;;;;;;5013779;28;20225;-63
2022/04/02 07:44:13;;;;;;;1.90;1.80;;;2.50;99.90;;;;;;5013172;28;20205;-64
2022/04/02 07:46:44;;;;;;;2.15;2.05;;;2.50;99.90;;;;;;5010040;28;20213;-64
2022/04/02 07:49:13;;;;;;;1.97;1.87;;;2.60;99.90;;;;;;5013763;28;20239;-64
2022/04/02 07:51:41;;;;;;;2.05;1.95;;;2.70;99.90;;;;;;5011739;28;20229;-62
2022/04/02 07:54:13;;;;;;;1.75;1.70;;;2.70;99.90;;;;;;5012442;28;20300;-64
2022/04/02 07:56:46;;;;;;;1.70;1.70;;;2.70;99.90;;;;;;5010822;28;20197;-64
2022/04/02 07:59:22;;;;;;;2.00;1.90;;;2.60;99.90;;;;;;5013028;28;20462;-64
2022/04/02 08:01:50;;;;;;;2.88;2.78;;;2.60;99.90;;;;;;5013075;28;20298;-63
2022/04/02 08:04:19;;;;;;;1.88;1.77;;;2.60;99.90;;;;;;5012213;28;20288;-63
2022/04/02 08:06:48;;;;;;;1.92;1.83;;;2.60;99.90;;;;;;5010197;28;20197;-63
2022/04/02 08:09:18;;;;;;;2.00;1.90;;;2.40;99.90;;;;;;5012507;28;20233;-63
2022/04/02 08:11:48;;;;;;;1.90;1.80;;;2.50;99.90;;;;;;5012625;28;20247;-64
2022/04/02 08:14:16;;;;;;;1.75;1.70;;;2.50;99.90;;;;;;5008290;28;20292;-63
2022/04/02 08:16:44;;;;;;;1.60;1.60;;;2.40;99.90;;;;;;5014921;28;20637;-62
2022/04/02 08:19:12;;;;;;;2.10;2.00;;;2.40;99.90;;;;;;5010942;28;20319;-63
2022/04/02 08:21:39;;;;;;;2.00;1.90;;;2.50;99.90;;;;;;5013941;28;20308;-64
2022/04/02 08:24:07;;;;;;;1.90;1.80;;;2.60;99.90;;;;;;5015598;28;20206;-63
2022/04/02 08:26:46;;;;;;;1.52;1.52;;;2.50;99.90;;;;;;5012746;28;20677;-63
2022/04/02 08:29:30;;;;;;;1.57;1.57;;;2.30;99.90;;;;;;5010085;28;20247;-63
2022/04/02 08:32:09;;;;;;;2.07;1.97;;;2.40;99.90;;;;;;5012452;28;20304;-62
2022/04/02 08:35:02;;;;;;;1.65;1.60;;;2.50;99.90;;;;;;5010840;28;20236;-63
2022/04/02 08:37:35;;;;;;;2.00;1.90;;;2.40;99.90;;;;;;5009936;28;20316;-64
2022/04/02 08:40:11;;;;;;;1.80;1.70;;;2.40;99.90;;;;;;5007348;28;20698;-62
2022/04/02 08:43:18;;;;;;;1.67;1.67;;;2.40;99.90;;;;;;5013451;28;20240;-63
2022/04/02 08:45:58;;;;;;;2.10;2.00;;;2.50;99.90;;;;;;5012463;28;20288;-62
2022/04/02 08:48:27;;;;;;;1.90;1.80;;;2.60;99.90;;;;;;5007527;28;20205;-62
2022/04/02 08:51:23;;;;;;;2.05;1.95;;;2.70;99.90;;;;;;5012631;28;20256;-64
2022/04/02 08:53:54;;;;;;;2.00;1.90;;;2.80;99.90;;;;;;4998654;28;20494;-62
2022/04/02 08:56:25;;;;;;;1.90;1.80;;;2.70;99.90;;;;;;5012567;28;20634;-63
2022/04/02 08:59:01;;;;;;;1.98;1.88;;;2.70;99.90;;;;;;5012350;28;20254;-62
2022/04/02 09:01:31;;;;;;;2.00;1.90;;;2.60;99.90;;;;;;5010382;28;20245;-62
2022/04/02 09:04:37;;;;;;;1.80;1.70;;;2.70;99.90;;;;;;5012783;28;20205;-63
2022/04/02 09:07:54;;;;;;;1.73;1.70;;;2.80;99.90;;;;;;4999897;28;20233;-63
2022/04/02 09:10:50;;;;;;;2.27;2.17;;;2.80;99.90;;;;;;4955870;29;21028;-63
2022/04/02 09:13:41;;;;;;;1.90;1.80;;;2.70;99.90;;;;;;5002734;28;20209;-63
2022/04/02 09:16:17;;;;;;;1.50;1.50;;;2.90;99.90;;;;;;5001933;28;20212;-64
2022/04/02 09:19:04;;;;;;;1.90;1.80;;;2.90;99.90;;;;;;5010088;28;20645;-62
2022/04/02 09:21:37;;;;;;;1.40;1.40;;;2.90;99.90;;;;;;5007057;28;20225;-63
2022/04/02 09:24:05;;;;;;;1.80;1.70;;;2.90;99.90;;;;;;4997174;28;20305;-63
2022/04/02 09:26:58;;;;;;;1.67;1.57;;;3.10;99.90;;;;;;5001270;28;20209;-64
2022/04/02 09:29:28;;;;;;;1.87;1.77;;;3.10;99.90;;;;;;4999221;28;20790;-63
2022/04/02 09:32:36;;;;;;;2.00;1.90;;;2.90;99.90;;;;;;4998419;28;20226;-63
2022/04/02 09:35:33;;;;;;;1.80;1.70;;;2.90;99.90;;;;;;5001733;28;20668;-64
2022/04/02 09:38:30;;;;;;;3.50;3.30;;;3.00;99.90;;;;;;5010799;28;20206;-63
2022/04/02 09:41:04;;;;;;;1.70;1.60;;;3.20;99.90;;;;;;5007417;28;20261;-63
2022/04/02 09:43:36;;;;;;;2.35;2.25;;;3.00;99.90;;;;;;5001109;28;20203;-60
2022/04/02 09:46:29;;;;;;;1.80;1.70;;;3.00;99.90;;;;;;5000330;28;20233;-62
2022/04/02 09:49:00;;;;;;;2.50;2.40;;;3.00;99.90;;;;;;4998473;28;20205;-62
2022/04/02 09:51:32;;;;;;;2.37;2.27;;;3.00;99.90;;;;;;5009249;28;20233;-64
2022/04/02 09:54:04;;;;;;;5.97;5.57;;;2.90;99.90;;;;;;5003924;28;20683;-63
2022/04/02 09:56:36;;;;;;;4.47;4.27;;;3.00;99.90;;;;;;5005964;28;20240;-61
2022/04/02 09:59:05;;;;;;;1.70;1.60;;;3.00;99.90;;;;;;5002429;28;20234;-63
2022/04/02 10:01:38;;;;;;;1.80;1.70;;;3.00;99.90;;;;;;5003685;28;20256;-64
2022/04/02 10:04:27;;;;;;;1.90;1.80;;;3.00;99.90;;;;;;5001330;28;20284;-64
2022/04/02 10:06:58;;;;;;;5.80;5.50;;;3.10;99.90;;;;;;5007318;28;20205;-63
2022/04/02 10:09:31;;;;;;;1.87;1.77;;;3.20;99.90;;;;;;5011045;28;20201;-63
2022/04/02 10:12:00;;;;;;;2.30;2.20;;;3.20;99.90;;;;;;5013842;28;20248;-62
2022/04/02 10:14:28;;;;;;;2.30;2.20;;;3.20;99.90;;;;;;5007299;28;20201;-62
2022/04/02 10:16:57;;;;;;;5.78;5.38;;;3.20;99.90;;;;;;5009104;28;20326;-63
2022/04/02 10:19:29;;;;;;;1.70;1.63;;;3.40;99.90;;;;;;5015957;28;20231;-64
2022/04/02 10:21:58;;;;;;;1.83;1.73;;;3.30;99.90;;;;;;5018736;28;20683;-63
2022/04/02 10:24:26;;;;;;;2.10;2.00;;;3.10;99.90;;;;;;5011521;28;20201;-62
2022/04/02 10:26:55;;;;;;;1.70;1.60;;;3.10;99.90;;;;;;5017964;28;20613;-62
2022/04/02 10:29:45;;;;;;;2.30;2.20;;;3.20;99.90;;;;;;5018782;28;20582;-62
2022/04/02 10:32:26;;;;;;;1.50;1.40;;;3.40;99.90;;;;;;5018816;28;20283;-61
2022/04/02 10:34:58;;;;;;;1.50;1.50;;;3.30;99.90;;;;;;5018331;28;20204;-63
2022/04/02 10:37:32;;;;;;;1.70;1.60;;;3.30;99.90;;;;;;5019015;28;20201;-64
2022/04/02 10:40:03;;;;;;;1.60;1.60;;;3.20;99.90;;;;;;5019822;28;20232;-65
2022/04/02 10:42:34;;;;;;;3.20;3.00;;;3.20;99.90;;;;;;5019860;28;20810;-63
2022/04/02 10:45:04;;;;;;;3.30;3.20;;;3.30;99.90;;;;;;5012798;28;20221;-65
2022/04/02 10:47:33;;;;;;;1.83;1.73;;;3.10;99.90;;;;;;5016334;28;20206;-63
2022/04/02 10:50:06;;;;;;;4.20;3.93;;;3.10;99.90;;;;;;5020287;28;20304;-62
2022/04/02 10:52:34;;;;;;;2.00;1.90;;;3.20;99.90;;;;;;5017560;28;20217;-63
2022/04/02 10:55:02;;;;;;;1.70;1.60;;;3.20;99.90;;;;;;5022527;28;20212;-63
2022/04/02 10:57:29;;;;;;;1.67;1.57;;;3.30;99.90;;;;;;5024165;28;20220;-62
2022/04/02 11:00:02;;;;;;;1.57;1.57;;;3.40;99.90;;;;;;5025183;28;20307;-64
2022/04/02 11:02:40;;;;;;;3.80;3.60;;;3.40;99.90;;;;;;5021930;28;20208;-61
2022/04/02 11:05:11;;;;;;;1.75;1.70;;;3.70;99.90;;;;;;5024686;28;20269;-61
2022/04/02 11:07:43;;;;;;;2.57;2.37;;;3.60;99.90;;;;;;5016936;28;20281;-63
2022/04/02 11:10:14;;;;;;;2.95;2.75;;;3.60;99.90;;;;;;5008102;28;20704;-66
2022/04/02 11:12:44;;;;;;;1.80;1.70;;;3.50;99.90;;;;;;5001138;28;20216;-62
2022/04/02 11:15:14;;;;;;;1.65;1.60;;;3.50;99.90;;;;;;4998371;28;20301;-61
2022/04/02 11:17:43;;;;;;;1.50;1.50;;;3.60;99.90;;;;;;5004083;28;20221;-62
2022/04/02 11:20:13;;;;;;;1.60;1.50;;;3.70;99.90;;;;;;5000392;28;20237;-64
2022/04/02 11:22:49;;;;;;;1.40;1.40;;;3.50;99.90;;;;;;5000962;28;20745;-62
2022/04/02 11:25:22;;;;;;;1.70;1.60;;;3.70;99.90;;;;;;5002624;28;20193;-62
2022/04/02 11:27:52;;;;;;;1.90;1.80;;;3.70;99.90;;;;;;5000247;28;20217;-62
2022/04/02 11:30:19;;;;;;;1.80;1.70;;;3.80;99.90;;;;;;5002816;28;20305;-62
2022/04/02 11:32:48;;;;;;;1.33;1.33;;;3.80;99.90;;;;;;5009303;28;20607;-65
2022/04/02 11:35:19;;;;;;;2.10;2.00;;;4.00;99.90;;;;;;5004324;28;20198;-60
2022/04/02 11:38:04;;;;;;;2.30;2.20;;;4.20;99.90;;;;;;5007707;28;20216;-63
2022/04/02 11:40:32;;;;;;;2.17;2.07;;;4.10;99.90;;;;;;5013611;28;20247;-61
2022/04/02 11:43:02;;;;;;;1.53;1.50;;;4.10;99.90;;;;;;5003567;28;20684;-63
2022/04/02 11:45:30;;;;;;;1.60;1.50;;;4.10;99.90;;;;;;5000926;28;20211;-64
2022/04/02 11:48:07;;;;;;;1.30;1.30;;;3.90;99.90;;;;;;5005965;28;20263;-64
2022/04/02 11:50:38;;;;;;;1.40;1.40;;;3.80;99.90;;;;;;5022106;28;20312;-63
2022/04/02 11:53:12;;;;;;;1.50;1.50;;;3.70;99.90;;;;;;5022252;28;20267;-66
2022/04/02 11:55:42;;;;;;;1.55;1.50;;;3.60;99.90;;;;;;5022915;28;20205;-62
2022/04/02 11:58:11;;;;;;;1.50;1.50;;;3.50;99.90;;;;;;5021850;28;20224;-62
2022/04/02 12:00:41;;;;;;;1.70;1.70;;;3.30;99.90;;;;;;5017000;28;20233;-63
2022/04/02 12:03:23;;;;;;;1.90;1.80;;;3.30;99.90;;;;;;5013348;28;20236;-63
2022/04/02 12:05:53;;;;;;;1.70;1.60;;;3.40;99.90;;;;;;5017021;28;20289;-62
2022/04/02 12:08:30;;;;;;;1.93;1.83;;;3.50;99.90;;;;;;5016543;28;20237;-62
2022/04/02 12:10:58;;;;;;;1.40;1.40;;;3.50;99.90;;;;;;5012521;28;20244;-63
2022/04/02 12:13:25;;;;;;;1.70;1.60;;;3.50;99.90;;;;;;5010947;28;20285;-64
2022/04/02 12:16:04;;;;;;;1.30;1.30;;;3.60;99.90;;;;;;5008292;28;20303;-64
2022/04/02 12:18:32;;;;;;;1.57;1.57;;;3.60;99.90;;;;;;5009938;28;20205;-61
2022/04/02 12:21:08;;;;;;;1.88;1.77;;;3.60;99.90;;;;;;5007949;28;20229;-62
2022/04/02 12:23:36;;;;;;;2.03;1.93;;;3.50;99.90;;;;;;5011261;28;20197;-61
2022/04/02 12:26:04;;;;;;;1.60;1.60;;;3.40;99.90;;;;;;5005992;28;20215;-63
2022/04/02 12:28:33;;;;;;;1.50;1.50;;;3.60;99.90;;;;;;5010462;28;20285;-61
2022/04/02 12:31:06;;;;;;;1.90;1.80;;;3.60;99.90;;;;;;5007401;28;20225;-63
2022/04/02 12:33:33;;;;;;;1.40;1.40;;;3.60;99.90;;;;;;5001281;28;20256;-64
2022/04/02 12:36:05;;;;;;;1.90;1.80;;;3.60;99.90;;;;;;5000438;28;20243;-62
2022/04/02 12:38:34;;;;;;;1.70;1.67;;;3.60;99.90;;;;;;4999897;28;20302;-62
2022/04/02 12:41:04;;;;;;;1.60;1.60;;;3.50;99.90;;;;;;5001016;28;20229;-63
2022/04/02 12:43:32;;;;;;;2.20;2.10;;;3.70;99.90;;;;;;5000656;28;20201;-62
2022/04/02 12:46:00;;;;;;;2.20;2.10;;;3.70;99.90;;;;;;4996259;28;20205;-63
2022/04/02 12:48:40;;;;;;;1.63;1.53;;;3.60;99.90;;;;;;4996878;28;20259;-63
2022/04/02 12:51:07;;;;;;;1.97;1.87;;;3.60;99.90;;;;;;4996747;28;20260;-62
2022/04/02 12:53:37;;;;;;;1.80;1.70;;;3.70;99.90;;;;;;4999287;28;20272;-62
2022/04/02 12:56:06;;;;;;;1.40;1.40;;;3.90;99.90;;;;;;4995437;28;20648;-63
2022/04/02 12:58:35;;;;;;;2.10;2.00;;;4.00;99.90;;;;;;4998812;28;20296;-61
2022/04/02 13:01:14;;;;;;;1.77;1.67;;;3.90;99.90;;;;;;5000255;28;20257;-63
2022/04/02 13:03:49;;;;;;;1.80;1.70;;;3.80;99.90;;;;;;5002778;28;20260;-65
2022/04/02 13:06:20;;;;;;;1.77;1.67;;;3.70;99.90;;;;;;5011064;28;20239;-63
2022/04/02 13:09:01;;;;;;;1.60;1.57;;;3.60;99.90;;;;;;5016337;28;20305;-63
2022/04/02 13:11:58;;;;;;;1.70;1.60;;;3.60;99.90;;;;;;5013949;28;20217;-64
2022/04/02 13:14:27;;;;;;;1.30;1.30;;;3.70;99.90;;;;;;4992508;28;20240;-62